Time;durP1;ratioP1;P1;durP2;ratioP2;P2;SDS_P1;SDS_P2;PMS_P1;PMS_P2;Temp;Humidity;BMP_temperature;BMP_pressure;BME280_temperature;BME280_humidity;BME280_pressure;Samples;Min_cycle;Max_cycle;Signal;HPM_P1;HPM_P2
2023/03/11 00:02:22;;;;;;;2.85;1.45;;;;;;;-144.87;100.00;61487.56;4989401;28;20038;-77
2023/03/11 00:04:49;;;;;;;18.48;3.60;;;;;;;-144.87;100.00;61487.56;4988771;28;20161;-77
2023/03/11 00:07:15;;;;;;;7.68;1.50;;;;;;;-144.87;100.00;61487.56;4977913;28;20043;-77
2023/03/11 00:09:41;;;;;;;8.98;1.80;;;;;;;-144.87;100.00;61487.56;4946853;28;20034;-77
2023/03/11 00:12:08;;;;;;;5.75;1.50;;;;;;;-144.87;100.00;61487.56;4971117;28;20160;-77
2023/03/11 00:14:34;;;;;;;6.88;1.48;;;;;;;-144.87;100.00;61487.56;4990460;28;20047;-77
2023/03/11 00:17:00;;;;;;;10.57;1.60;;;;;;;-144.87;100.00;61487.56;4972440;28;20038;-78
2023/03/11 00:19:27;;;;;;;7.45;1.20;;;;;;;-144.87;100.00;61487.56;4994361;28;20211;-78
2023/03/11 00:21:54;;;;;;;8.10;1.55;;;;;;;-144.87;100.00;61487.56;4975105;28;20030;-77
2023/03/11 00:24:20;;;;;;;11.48;1.70;;;;;;;-144.87;100.00;61487.56;4993417;28;20205;-79
2023/03/11 00:26:47;;;;;;;7.68;1.42;;;;;;;-144.87;100.00;61487.56;4976207;28;20200;-77
2023/03/11 00:29:13;;;;;;;2.67;1.25;;;;;;;-144.87;100.00;61487.56;4976492;28;20140;-77
2023/03/11 00:31:59;;;;;;;5.68;1.55;;;;;;;-144.87;100.00;61487.56;4953779;28;20082;-89
2023/03/11 00:34:25;;;;;;;9.65;1.33;;;;;;;-144.87;100.00;61487.56;4960461;28;20026;-77
2023/03/11 00:36:53;;;;;;;10.88;2.13;;;;;;;-144.87;100.00;61487.56;4959449;28;20062;-76
2023/03/11 00:39:19;;;;;;;4.40;1.38;;;;;;;-144.87;100.00;61487.56;4956963;28;20051;-77
2023/03/11 00:41:45;;;;;;;6.00;1.77;;;;;;;-144.87;100.00;61487.56;4952424;28;20034;-77
2023/03/11 00:44:12;;;;;;;6.88;1.70;;;;;;;-144.87;100.00;61487.56;4957148;28;20039;-77
2023/03/11 00:46:40;;;;;;;6.53;1.42;;;;;;;-144.87;100.00;61487.56;4975185;28;20491;-78
2023/03/11 00:49:06;;;;;;;7.78;1.33;;;;;;;-144.87;100.00;61487.56;4959649;28;20052;-77
2023/03/11 00:51:33;;;;;;;9.68;1.30;;;;;;;-144.87;100.00;61487.56;4969309;28;20408;-78
2023/03/11 00:54:00;;;;;;;10.18;1.55;;;;;;;-144.87;100.00;61487.56;4940416;28;20261;-77
2023/03/11 00:56:26;;;;;;;4.03;1.70;;;;;;;-144.87;100.00;61487.56;4956288;28;20605;-78
2023/03/11 00:58:53;;;;;;;5.72;1.60;;;;;;;-144.87;100.00;61487.56;4974322;28;20045;-78
2023/03/11 01:01:20;;;;;;;5.00;1.67;;;;;;;-144.87;100.00;61487.56;4958397;28;20061;-77
2023/03/11 01:03:47;;;;;;;6.47;1.95;;;;;;;-144.87;100.00;61487.56;4943032;28;20038;-80
2023/03/11 01:06:13;;;;;;;7.28;1.45;;;;;;;-144.87;100.00;61487.56;4959289;28;20113;-77
2023/03/11 01:08:40;;;;;;;6.38;1.60;;;;;;;-144.87;100.00;61487.56;4975839;28;20037;-77
2023/03/11 01:11:07;;;;;;;4.68;1.42;;;;;;;-144.87;100.00;61487.56;4958595;28;20049;-76
2023/03/11 01:13:34;;;;;;;6.45;1.40;;;;;;;-144.87;100.00;61487.56;4975140;28;20042;-77
2023/03/11 01:16:01;;;;;;;9.10;1.80;;;;;;;-144.87;100.00;61487.56;4990083;28;20210;-76
2023/03/11 01:18:28;;;;;;;3.63;1.52;;;;;;;-144.87;100.00;61487.56;4974444;28;20132;-76
2023/03/11 01:20:54;;;;;;;7.13;1.30;;;;;;;-144.87;100.00;61487.56;4979897;28;20100;-77
2023/03/11 01:23:21;;;;;;;5.63;1.95;;;;;;;-144.87;100.00;61487.56;4991747;28;20034;-77
2023/03/11 01:25:47;;;;;;;4.55;1.30;;;;;;;-144.87;100.00;61487.56;4958278;28;20033;-76
2023/03/11 01:28:14;;;;;;;6.15;1.73;;;;;;;-144.87;100.00;61487.56;4958631;28;20184;-76
2023/03/11 01:30:41;;;;;;;11.65;1.83;;;;;;;-144.87;100.00;61487.56;4957197;28;20392;-76
2023/03/11 01:33:12;;;;;;;11.88;1.70;;;;;;;-144.87;100.00;61487.56;4957014;28;20045;-76
2023/03/11 01:35:41;;;;;;;16.73;1.70;;;;;;;-144.87;100.00;61487.56;4955381;28;20117;-77
2023/03/11 01:38:07;;;;;;;4.13;1.50;;;;;;;-144.87;100.00;61487.56;4973538;28;20093;-77
2023/03/11 01:40:36;;;;;;;7.68;2.22;;;;;;;-144.87;100.00;61487.56;4973380;28;20588;-77
2023/03/11 01:43:43;;;;;;;8.30;1.58;;;;;;;-144.87;100.00;61487.56;4973222;28;20030;-77
2023/03/11 01:46:26;;;;;;;7.18;2.20;;;;;;;-144.87;100.00;61487.56;4971730;28;20523;-77
2023/03/11 01:48:55;;;;;;;6.93;1.80;;;;;;;-144.87;100.00;61487.56;4949049;28;20038;-77
2023/03/11 01:51:28;;;;;;;12.80;2.20;;;;;;;-144.87;100.00;61487.56;4957747;28;20513;-76
2023/03/11 01:53:56;;;;;;;9.00;2.25;;;;;;;-144.87;100.00;61487.56;4958842;28;20034;-77
2023/03/11 01:56:23;;;;;;;5.03;1.60;;;;;;;-144.87;100.00;61487.56;4974709;28;20027;-77
2023/03/11 01:58:51;;;;;;;10.13;1.92;;;;;;;-144.87;100.00;61487.56;4974003;28;20042;-77
2023/03/11 02:01:19;;;;;;;7.60;1.77;;;;;;;-144.87;100.00;61487.56;4973681;28;20464;-77
2023/03/11 02:03:45;;;;;;;5.55;1.42;;;;;;;-144.87;100.00;61487.56;4970203;28;20096;-77
2023/03/11 02:06:19;;;;;;;10.35;1.70;;;;;;;-144.87;100.00;61487.56;4950992;28;20487;-77
2023/03/11 02:08:47;;;;;;;8.48;1.50;;;;;;;-144.87;100.00;61487.56;4958272;28;20038;-77
2023/03/11 02:11:33;;;;;;;11.85;2.00;;;;;;;-144.87;100.00;61487.56;4956204;28;20081;-76
2023/03/11 02:14:02;;;;;;;8.98;1.95;;;;;;;-144.87;100.00;61487.56;4972822;28;20034;-77
2023/03/11 02:16:29;;;;;;;10.20;2.03;;;;;;;-144.87;100.00;61487.56;4958680;28;20038;-77
2023/03/11 02:18:58;;;;;;;8.95;1.67;;;;;;;-144.87;100.00;61487.56;4991464;28;20432;-78
2023/03/11 02:21:30;;;;;;;8.32;1.50;;;;;;;-144.87;100.00;61487.56;4923670;28;20498;-77
2023/03/11 02:24:17;;;;;;;6.28;1.65;;;;;;;-144.87;100.00;61487.56;4973521;28;20026;-77
2023/03/11 02:27:02;;;;;;;7.10;2.15;;;;;;;-144.87;100.00;61487.56;4982567;28;20030;-77
2023/03/11 02:29:30;;;;;;;5.50;2.15;;;;;;;-144.87;100.00;61487.56;4943520;28;20026;-77
2023/03/11 02:31:59;;;;;;;8.68;1.58;;;;;;;-144.87;100.00;61487.56;4956115;28;20045;-77
2023/03/11 02:34:30;;;;;;;6.90;1.27;;;;;;;-144.87;100.00;61487.56;4972132;28;20035;-77
2023/03/11 02:36:58;;;;;;;9.10;2.33;;;;;;;-144.87;100.00;61487.56;4956894;28;20141;-77
2023/03/11 02:39:39;;;;;;;8.90;1.63;;;;;;;-144.87;100.00;61487.56;4956392;28;20049;-77
2023/03/11 02:42:12;;;;;;;8.20;1.40;;;;;;;-144.87;100.00;61487.56;4946290;28;20026;-78
2023/03/11 02:44:43;;;;;;;3.75;1.48;;;;;;;-144.87;100.00;61487.56;4955826;28;20484;-77
2023/03/11 02:47:10;;;;;;;8.68;1.63;;;;;;;-144.87;100.00;61487.56;4953562;28;20054;-76
2023/03/11 02:49:36;;;;;;;12.60;1.75;;;;;;;-144.87;100.00;61487.56;4962399;28;20039;-77
2023/03/11 02:52:04;;;;;;;4.03;1.85;;;;;;;-144.87;100.00;61487.56;4941371;28;20035;-76
2023/03/11 02:54:30;;;;;;;6.55;1.83;;;;;;;-144.87;100.00;61487.56;4939826;28;20038;-77
2023/03/11 02:56:57;;;;;;;9.73;1.83;;;;;;;-144.87;100.00;61487.56;4969419;28;20042;-77
2023/03/11 02:59:26;;;;;;;5.70;1.75;;;;;;;-144.87;100.00;61487.56;4957223;28;20058;-77
2023/03/11 03:01:53;;;;;;;6.78;1.40;;;;;;;-144.87;100.00;61487.56;4972100;28;20038;-76
2023/03/11 03:04:20;;;;;;;6.18;1.65;;;;;;;-144.87;100.00;61487.56;4952954;28;20047;-76
2023/03/11 03:06:47;;;;;;;8.50;1.65;;;;;;;-144.87;100.00;61487.56;4937223;28;20121;-76
2023/03/11 03:09:15;;;;;;;5.75;1.42;;;;;;;-144.87;100.00;61487.56;4972191;28;20038;-76
2023/03/11 03:11:43;;;;;;;4.22;1.33;;;;;;;-144.87;100.00;61487.56;4971962;28;20089;-76
2023/03/11 03:14:09;;;;;;;6.75;1.63;;;;;;;-144.87;100.00;61487.56;4955351;28;20065;-77
2023/03/11 03:16:35;;;;;;;4.30;1.55;;;;;;;-144.87;100.00;61487.56;4984043;28;20038;-76
2023/03/11 03:19:01;;;;;;;5.72;2.08;;;;;;;-144.87;100.00;61487.56;4939277;28;20098;-77
2023/03/11 03:21:28;;;;;;;7.72;1.70;;;;;;;-144.87;100.00;61487.56;4962175;28;20034;-76
2023/03/11 03:23:55;;;;;;;4.78;1.77;;;;;;;-144.87;100.00;61487.56;4973006;28;20038;-76
2023/03/11 03:26:21;;;;;;;4.38;1.52;;;;;;;-144.87;100.00;61487.56;4989838;28;20125;-76
2023/03/11 03:28:49;;;;;;;8.43;1.45;;;;;;;-144.87;100.00;61487.56;4952854;28;20444;-77
2023/03/11 03:31:15;;;;;;;4.20;1.50;;;;;;;-144.87;100.00;61487.56;4945973;28;20043;-77
2023/03/11 03:33:42;;;;;;;13.15;1.63;;;;;;;-144.87;100.00;61487.56;4922274;28;20050;-76
2023/03/11 03:36:11;;;;;;;6.10;1.70;;;;;;;-144.87;100.00;61487.56;4971141;28;20052;-76
2023/03/11 03:38:41;;;;;;;5.28;1.75;;;;;;;-144.87;100.00;61487.56;4956416;28;20038;-77
2023/03/11 03:41:08;;;;;;;8.90;1.70;;;;;;;-144.87;100.00;61487.56;4953009;28;20034;-77
2023/03/11 03:43:37;;;;;;;6.75;2.05;;;;;;;-144.87;100.00;61487.56;4969808;28;20121;-77
2023/03/11 03:46:04;;;;;;;7.40;1.83;;;;;;;-144.87;100.00;61487.56;4955971;28;20771;-76
2023/03/11 03:48:38;;;;;;;5.82;1.55;;;;;;;-144.87;100.00;61487.56;4928317;28;20042;-77
2023/03/11 03:51:09;;;;;;;7.47;2.10;;;;;;;-144.87;100.00;61487.56;4952429;28;20046;-77
2023/03/11 03:53:38;;;;;;;7.53;2.03;;;;;;;-144.87;100.00;61487.56;4952646;28;20480;-77
2023/03/11 03:56:10;;;;;;;9.38;1.80;;;;;;;-144.87;100.00;61487.56;4972962;28;20053;-77
2023/03/11 03:58:37;;;;;;;5.00;1.63;;;;;;;-144.87;100.00;61487.56;4976383;28;20547;-76
2023/03/11 04:01:05;;;;;;;9.32;2.25;;;;;;;-144.87;100.00;61487.56;4959252;28;20100;-75
2023/03/11 04:03:33;;;;;;;6.13;2.10;;;;;;;-144.87;100.00;61487.56;4960893;28;20030;-76
2023/03/11 04:06:09;;;;;;;5.68;2.10;;;;;;;-144.87;100.00;61487.56;4959600;28;20034;-76
2023/03/11 04:08:36;;;;;;;12.45;2.80;;;;;;;-144.87;100.00;61487.56;4993616;28;20133;-76
2023/03/11 04:11:03;;;;;;;9.90;2.05;;;;;;;-144.87;100.00;61487.56;4992552;28;20022;-76
2023/03/11 04:13:31;;;;;;;10.35;2.20;;;;;;;-144.87;100.00;61487.56;4960484;28;20030;-77
2023/03/11 04:15:58;;;;;;;9.27;3.20;;;;;;;-144.87;100.00;61487.56;4992573;28;20034;-77
2023/03/11 04:18:24;;;;;;;5.05;2.35;;;;;;;-144.87;100.00;61487.56;4975530;28;20496;-76
2023/03/11 04:20:51;;;;;;;10.00;3.13;;;;;;;-144.87;100.00;61487.56;4975386;28;20035;-77
2023/03/11 04:23:17;;;;;;;13.55;2.40;;;;;;;-144.87;100.00;61487.56;4965899;28;20038;-76
2023/03/11 04:25:43;;;;;;;7.80;1.95;;;;;;;-144.87;100.00;61487.56;4972622;28;20561;-76
2023/03/11 04:28:10;;;;;;;11.15;2.55;;;;;;;-144.87;100.00;61487.56;4993383;28;20052;-77
2023/03/11 04:30:36;;;;;;;3.92;2.20;;;;;;;-144.87;100.00;61487.56;4989457;28;20027;-76
2023/03/11 04:33:03;;;;;;;8.70;2.28;;;;;;;-144.87;100.00;61487.56;4965394;28;20070;-76
2023/03/11 04:35:29;;;;;;;10.50;2.65;;;;;;;-144.87;100.00;61487.56;4975833;28;20030;-75
2023/03/11 04:37:56;;;;;;;7.18;2.88;;;;;;;-144.87;100.00;61487.56;4958926;28;20408;-76
2023/03/11 04:40:24;;;;;;;7.25;2.42;;;;;;;-144.87;100.00;61487.56;4957311;28;20035;-76
2023/03/11 04:42:52;;;;;;;11.98;2.50;;;;;;;-144.87;100.00;61487.56;4943418;28;20035;-77
2023/03/11 04:45:19;;;;;;;7.35;2.40;;;;;;;-144.87;100.00;61487.56;4974282;28;20512;-77
2023/03/11 04:47:48;;;;;;;10.45;2.80;;;;;;;-144.87;100.00;61487.56;4943884;28;20539;-76
2023/03/11 04:50:15;;;;;;;6.57;2.25;;;;;;;-144.87;100.00;61487.56;4967873;28;20066;-76
2023/03/11 04:52:42;;;;;;;7.90;2.33;;;;;;;-144.87;100.00;61487.56;4951324;28;20065;-76
2023/03/11 04:55:08;;;;;;;8.93;2.65;;;;;;;-144.87;100.00;61487.56;4990755;28;20042;-76
2023/03/11 04:57:35;;;;;;;5.22;2.22;;;;;;;-144.87;100.00;61487.56;4955672;28;20043;-76
2023/03/11 05:00:10;;;;;;;12.13;2.42;;;;;;;-144.87;100.00;61487.56;4958631;28;20126;-76
2023/03/11 05:02:38;;;;;;;3.70;2.00;;;;;;;-144.87;100.00;61487.56;4972025;28;20113;-76
2023/03/11 05:05:06;;;;;;;10.88;2.35;;;;;;;-144.87;100.00;61487.56;4955054;28;20029;-76
2023/03/11 05:07:33;;;;;;;12.32;2.33;;;;;;;-144.87;100.00;61487.56;4975352;28;20034;-77
2023/03/11 05:09:59;;;;;;;9.35;2.63;;;;;;;-144.87;100.00;61487.56;4936328;28;20034;-76
2023/03/11 05:12:26;;;;;;;13.55;2.75;;;;;;;-144.87;100.00;61487.56;4987069;28;20039;-76
2023/03/11 05:14:53;;;;;;;7.10;2.60;;;;;;;-144.87;100.00;61487.56;4942188;28;20038;-76
2023/03/11 05:17:20;;;;;;;7.55;2.30;;;;;;;-144.87;100.00;61487.56;4972330;28;20035;-77
2023/03/11 05:19:49;;;;;;;7.25;2.53;;;;;;;-144.87;100.00;61487.56;4974630;28;20034;-79
2023/03/11 05:22:22;;;;;;;7.30;2.05;;;;;;;-144.87;100.00;61487.56;4962549;28;20265;-76
2023/03/11 05:24:48;;;;;;;10.60;2.40;;;;;;;-144.87;100.00;61487.56;4974099;28;20027;-76
2023/03/11 05:27:16;;;;;;;6.82;2.42;;;;;;;-144.87;100.00;61487.56;4942888;28;20124;-76
2023/03/11 05:29:45;;;;;;;17.92;2.65;;;;;;;-144.87;100.00;61487.56;4972231;28;20576;-76
2023/03/11 05:32:12;;;;;;;11.10;2.40;;;;;;;-144.87;100.00;61487.56;4940918;28;20089;-77
2023/03/11 05:34:41;;;;;;;4.68;2.30;;;;;;;-144.87;100.00;61487.56;4957839;28;20042;-77
2023/03/11 05:37:07;;;;;;;13.20;2.30;;;;;;;-144.87;100.00;61487.56;4954905;28;20058;-77
2023/03/11 05:39:34;;;;;;;8.07;2.28;;;;;;;-144.87;100.00;61487.56;4960295;28;20034;-77
2023/03/11 05:42:00;;;;;;;7.10;2.42;;;;;;;-144.87;100.00;61487.56;4990155;28;20038;-77
2023/03/11 05:44:27;;;;;;;12.48;2.55;;;;;;;-144.87;100.00;61487.56;4974099;28;20042;-77
2023/03/11 05:46:55;;;;;;;14.10;2.25;;;;;;;-144.87;100.00;61487.56;4989849;28;20048;-77
2023/03/11 05:49:22;;;;;;;9.95;2.20;;;;;;;-144.87;100.00;61487.56;4938920;28;20076;-77
2023/03/11 05:51:52;;;;;;;7.13;2.25;;;;;;;-144.87;100.00;61487.56;4955188;28;20035;-81
2023/03/11 05:54:18;;;;;;;27.50;3.60;;;;;;;-144.87;100.00;61487.56;4970951;28;20044;-77
2023/03/11 05:56:47;;;;;;;9.30;2.35;;;;;;;-144.87;100.00;61487.56;4973467;28;20455;-77
2023/03/11 05:59:15;;;;;;;10.38;2.20;;;;;;;-144.87;100.00;61487.56;4974138;28;20031;-77
2023/03/11 06:01:42;;;;;;;8.38;2.40;;;;;;;-144.87;100.00;61487.56;4954978;28;20031;-76
2023/03/11 06:04:09;;;;;;;4.97;2.38;;;;;;;-144.87;100.00;61487.56;4973394;28;20147;-77
2023/03/11 06:06:37;;;;;;;9.18;2.40;;;;;;;-144.87;100.00;61487.56;4972992;28;20030;-77
2023/03/11 06:09:03;;;;;;;8.38;2.35;;;;;;;-144.87;100.00;61487.56;4954528;28;20035;-77
2023/03/11 06:11:30;;;;;;;7.88;2.70;;;;;;;-144.87;100.00;61487.56;4958799;28;20113;-76
2023/03/11 06:13:57;;;;;;;7.90;3.15;;;;;;;-144.87;100.00;61487.56;4963273;28;20125;-77
2023/03/11 06:16:25;;;;;;;6.82;3.05;;;;;;;-144.87;100.00;61487.56;4955964;28;20053;-77
2023/03/11 06:18:53;;;;;;;13.30;3.60;;;;;;;-144.87;100.00;61487.56;4958409;28;20451;-77
2023/03/11 06:21:22;;;;;;;7.40;3.35;;;;;;;-144.87;100.00;61487.56;4957875;28;20027;-76
2023/03/11 06:23:49;;;;;;;21.05;4.88;;;;;;;-144.87;100.00;61487.56;4960236;28;20514;-77
2023/03/11 06:26:19;;;;;;;7.70;3.63;;;;;;;-144.87;100.00;61487.56;4996011;28;20126;-76
2023/03/11 06:28:47;;;;;;;9.90;3.45;;;;;;;-144.87;100.00;61487.56;4991138;28;20038;-79
2023/03/11 06:31:19;;;;;;;11.95;3.38;;;;;;;-144.87;100.00;61487.56;4957381;28;20093;-76
2023/03/11 06:33:47;;;;;;;11.15;4.35;;;;;;;-144.87;100.00;61487.56;4969035;28;20455;-79
2023/03/11 06:36:14;;;;;;;12.88;3.10;;;;;;;-144.87;100.00;61487.56;4956187;28;20096;-76
2023/03/11 06:38:42;;;;;;;9.55;3.67;;;;;;;-144.87;100.00;61487.56;4972343;28;20046;-77
2023/03/11 06:41:08;;;;;;;12.68;3.33;;;;;;;-144.87;100.00;61487.56;4972286;28;20041;-76
2023/03/11 06:43:35;;;;;;;9.60;3.92;;;;;;;-144.87;100.00;61487.56;4943862;28;20081;-77
2023/03/11 06:46:12;;;;;;;10.15;3.60;;;;;;;-144.87;100.00;61487.56;4966501;28;20038;-77
2023/03/11 06:48:39;;;;;;;9.35;3.72;;;;;;;-144.87;100.00;61487.56;4969743;28;20034;-76
2023/03/11 06:51:06;;;;;;;7.63;3.00;;;;;;;-144.87;100.00;61487.56;4952217;28;20038;-77
2023/03/11 06:53:33;;;;;;;10.90;3.03;;;;;;;-144.87;100.00;61487.56;4945184;28;20022;-76
2023/03/11 06:56:03;;;;;;;5.63;2.50;;;;;;;-144.87;100.00;61487.56;4943999;28;20031;-77
2023/03/11 06:58:33;;;;;;;11.45;3.10;;;;;;;-144.87;100.00;61487.56;4956606;28;20135;-77
2023/03/11 07:01:01;;;;;;;5.40;3.33;;;;;;;-144.87;100.00;61487.56;4955355;28;20126;-77
2023/03/11 07:03:28;;;;;;;15.60;3.25;;;;;;;-144.87;100.00;61487.56;4956795;28;20041;-77
2023/03/11 07:05:54;;;;;;;7.70;2.47;;;;;;;-144.87;100.00;61487.56;4971428;28;20053;-76
2023/03/11 07:08:20;;;;;;;9.55;2.53;;;;;;;-144.87;100.00;61487.56;4958899;28;20066;-77
2023/03/11 07:10:57;;;;;;;9.32;2.40;;;;;;;-144.87;100.00;61487.56;4953078;28;20030;-78
2023/03/11 07:13:24;;;;;;;5.97;2.50;;;;;;;-144.87;100.00;61487.56;4972023;28;20064;-77
2023/03/11 07:16:06;;;;;;;9.05;3.20;;;;;;;-144.87;100.00;61487.56;4970998;28;20625;-79
2023/03/11 07:18:34;;;;;;;9.32;3.33;;;;;;;-144.87;100.00;61487.56;4972982;28;20038;-79
2023/03/11 07:21:02;;;;;;;7.63;2.78;;;;;;;-144.87;100.00;61487.56;4972619;28;20038;-78
2023/03/11 07:23:28;;;;;;;5.80;2.60;;;;;;;-144.87;100.00;61487.56;4973157;28;20042;-78
2023/03/11 07:25:55;;;;;;;6.93;2.60;;;;;;;-144.87;100.00;61487.56;4958590;28;20023;-78
2023/03/11 07:28:22;;;;;;;7.35;3.03;;;;;;;-144.87;100.00;61487.56;4968597;28;20043;-78
2023/03/11 07:30:49;;;;;;;12.25;3.75;;;;;;;-144.87;100.00;61487.56;4955863;28;20074;-80
2023/03/11 07:33:15;;;;;;;6.28;2.92;;;;;;;-144.87;100.00;61487.56;4985118;28;20039;-76
2023/03/11 07:35:42;;;;;;;7.18;3.13;;;;;;;-144.87;100.00;61487.56;4963199;28;20049;-78
2023/03/11 07:38:09;;;;;;;10.10;2.67;;;;;;;-144.87;100.00;61487.56;4962836;28;20134;-76
2023/03/11 07:40:36;;;;;;;6.65;3.05;;;;;;;-144.87;100.00;61487.56;4967037;28;20047;-78
2023/03/11 07:43:02;;;;;;;6.88;3.30;;;;;;;-144.87;100.00;61487.56;4966226;28;20041;-80
2023/03/11 07:45:29;;;;;;;7.07;2.95;;;;;;;-144.87;100.00;61487.56;4958166;28;20038;-76
2023/03/11 07:47:55;;;;;;;11.02;2.40;;;;;;;-144.87;100.00;61487.56;4968603;28;20042;-79
2023/03/11 07:50:21;;;;;;;9.45;2.85;;;;;;;-144.87;100.00;61487.56;4970539;28;20031;-78
2023/03/11 07:52:48;;;;;;;11.65;3.25;;;;;;;-144.87;100.00;61487.56;4969111;28;20493;-78
2023/03/11 07:55:15;;;;;;;17.63;3.63;;;;;;;-144.87;100.00;61487.56;4967393;28;20149;-77
2023/03/11 07:57:44;;;;;;;9.55;2.83;;;;;;;-144.87;100.00;61487.56;4967807;28;20047;-76
2023/03/11 08:00:11;;;;;;;8.88;3.03;;;;;;;-144.87;100.00;61487.56;4958329;28;20058;-76
2023/03/11 08:02:40;;;;;;;19.23;3.30;;;;;;;-144.87;100.00;61487.56;4965082;28;20039;-78
2023/03/11 08:05:07;;;;;;;9.85;3.83;;;;;;;-144.87;100.00;61487.56;4948000;28;20046;-75
2023/03/11 08:07:33;;;;;;;11.05;2.78;;;;;;;-144.87;100.00;61487.56;4967489;28;20130;-76
2023/03/11 08:10:00;;;;;;;11.50;2.50;;;;;;;-144.87;100.00;61487.56;4948942;28;20034;-76
2023/03/11 08:12:26;;;;;;;8.52;2.28;;;;;;;-144.87;100.00;61487.56;4952647;28;20027;-77
2023/03/11 08:14:52;;;;;;;5.32;2.60;;;;;;;-144.87;100.00;61487.56;4960811;28;20066;-79
2023/03/11 08:17:37;;;;;;;8.43;2.92;;;;;;;-144.87;100.00;61487.56;4988104;28;20039;-78
2023/03/11 08:20:06;;;;;;;7.25;3.05;;;;;;;-144.87;100.00;61487.56;4963898;28;20046;-79
2023/03/11 08:22:33;;;;;;;9.10;2.83;;;;;;;-144.87;100.00;61487.56;4963557;28;20122;-76
2023/03/11 08:24:59;;;;;;;9.82;3.80;;;;;;;-144.87;100.00;61487.56;4958202;28;20039;-76
2023/03/11 08:27:27;;;;;;;6.43;2.35;;;;;;;-144.87;100.00;61487.56;4963019;28;20117;-78
2023/03/11 08:29:54;;;;;;;13.07;2.55;;;;;;;-144.87;100.00;61487.56;4967942;28;20034;-77
2023/03/11 08:32:20;;;;;;;11.48;3.38;;;;;;;-144.87;100.00;61487.56;4952073;28;20034;-77
2023/03/11 08:34:46;;;;;;;14.32;3.38;;;;;;;-144.87;100.00;61487.56;4968171;28;20066;-78
2023/03/11 08:37:13;;;;;;;9.23;3.13;;;;;;;-144.87;100.00;61487.56;4981773;28;20077;-78
2023/03/11 08:39:39;;;;;;;6.38;2.50;;;;;;;-144.87;100.00;61487.56;4974464;28;20049;-77
2023/03/11 08:42:05;;;;;;;9.32;3.00;;;;;;;-144.87;100.00;61487.56;4975230;28;20070;-77
2023/03/11 08:44:32;;;;;;;6.75;1.95;;;;;;;-144.87;100.00;61487.56;4956114;28;20084;-77
2023/03/11 08:46:59;;;;;;;12.40;2.65;;;;;;;-144.87;100.00;61487.56;4993256;28;20584;-77
2023/03/11 08:49:25;;;;;;;10.15;2.90;;;;;;;-144.87;100.00;61487.56;4978203;28;20019;-78
2023/03/11 08:51:52;;;;;;;11.32;2.45;;;;;;;-144.87;100.00;61487.56;4974679;28;20310;-77
2023/03/11 08:54:18;;;;;;;8.77;2.20;;;;;;;-144.87;100.00;61487.56;4993503;28;20066;-78
2023/03/11 08:56:46;;;;;;;9.55;1.85;;;;;;;-144.87;100.00;61487.56;4992282;28;20034;-78
2023/03/11 08:59:13;;;;;;;9.57;1.75;;;;;;;-144.87;100.00;61487.56;4993141;28;20030;-76
2023/03/11 09:01:41;;;;;;;8.38;2.20;;;;;;;-144.87;100.00;61487.56;4973078;28;20026;-76
2023/03/11 09:04:08;;;;;;;6.40;2.20;;;;;;;-144.87;100.00;61487.56;4999903;28;20294;-76
2023/03/11 09:06:35;;;;;;;9.00;2.03;;;;;;;-144.87;100.00;61487.56;4993425;28;20102;-75
2023/03/11 09:09:01;;;;;;;7.43;1.80;;;;;;;-144.87;100.00;61487.56;4991475;28;20034;-76
2023/03/11 09:11:28;;;;;;;5.60;1.40;;;;;;;-144.87;100.00;61487.56;4975029;28;20038;-77
2023/03/11 09:13:54;;;;;;;12.18;2.20;;;;;;;-144.87;100.00;61487.56;4993491;28;20042;-77
2023/03/11 09:16:21;;;;;;;8.43;2.10;;;;;;;-144.87;100.00;61487.56;4957944;28;20035;-77
2023/03/11 09:18:48;;;;;;;3.45;1.50;;;;;;;-144.87;100.00;61487.56;4975205;28;20030;-79
2023/03/11 09:21:14;;;;;;;7.65;1.80;;;;;;;-144.87;100.00;61487.56;4959520;28;20056;-77
2023/03/11 09:23:41;;;;;;;10.32;2.00;;;;;;;-144.87;100.00;61487.56;4958929;28;20077;-77
2023/03/11 09:26:07;;;;;;;4.78;2.00;;;;;;;-144.87;100.00;61487.56;4975506;28;20057;-78
2023/03/11 09:28:33;;;;;;;8.95;2.60;;;;;;;-144.87;100.00;61487.56;4992359;28;20046;-79
2023/03/11 09:30:59;;;;;;;7.85;1.95;;;;;;;-144.87;100.00;61487.56;4988270;28;20096;-78
2023/03/11 09:33:26;;;;;;;7.93;1.52;;;;;;;-144.87;100.00;61487.56;4992531;28;20641;-80
2023/03/11 09:35:52;;;;;;;9.68;2.13;;;;;;;-144.87;100.00;61487.56;4973936;28;20045;-78
2023/03/11 09:38:18;;;;;;;9.52;2.30;;;;;;;-144.87;100.00;61487.56;4970004;28;20058;-79
2023/03/11 09:40:59;;;;;;;8.40;1.75;;;;;;;-144.87;100.00;61487.56;4958065;28;20198;-78
2023/03/11 09:43:49;;;;;;;29.15;3.40;;;;;;;-144.87;100.00;61487.56;4952702;28;20026;-78
2023/03/11 09:46:37;;;;;;;6.32;1.27;;;;;;;-144.87;100.00;61487.56;4991914;28;20140;-77
2023/03/11 09:49:26;;;;;;;6.50;1.90;;;;;;;-144.87;100.00;61487.56;4991371;28;20034;-79
2023/03/11 09:52:16;;;;;;;4.65;1.33;;;;;;;-144.87;100.00;61487.56;4947548;28;20093;-81
2023/03/11 09:54:46;;;;;;;6.25;1.60;;;;;;;-144.87;100.00;61487.56;4972774;28;20554;-79
2023/03/11 09:57:31;;;;;;;7.57;1.50;;;;;;;-144.87;100.00;61487.56;4974283;28;20034;-78
2023/03/11 09:59:59;;;;;;;10.63;1.83;;;;;;;-144.87;100.00;61487.56;4974171;28;20053;-78
2023/03/11 10:02:26;;;;;;;8.15;2.00;;;;;;;-144.87;100.00;61487.56;4956560;28;20034;-77
2023/03/11 10:04:58;;;;;;;8.68;1.85;;;;;;;-144.87;100.00;61487.56;4989186;28;20118;-81
2023/03/11 10:07:39;;;;;;;7.75;2.28;;;;;;;-144.87;100.00;61487.56;4991667;28;20046;-78
2023/03/11 10:10:08;;;;;;;5.45;1.48;;;;;;;-144.87;100.00;61487.56;4957100;28;20484;-77
2023/03/11 10:13:02;;;;;;;7.03;1.80;;;;;;;-144.87;100.00;61487.56;4973788;28;20045;-78
2023/03/11 10:15:48;;;;;;;5.05;1.65;;;;;;;-144.87;100.00;61487.56;4954833;28;20035;-77
2023/03/11 10:18:36;;;;;;;6.57;1.38;;;;;;;-144.87;100.00;61487.56;4972497;28;20046;-78
2023/03/11 10:21:26;;;;;;;10.57;1.83;;;;;;;-144.87;100.00;61487.56;4972489;28;20039;-79
2023/03/11 10:24:14;;;;;;;9.07;1.93;;;;;;;-144.87;100.00;61487.56;4945739;28;20037;-77
2023/03/11 10:26:50;;;;;;;6.32;1.45;;;;;;;-144.87;100.00;61487.56;4975513;28;20038;-77
2023/03/11 10:29:28;;;;;;;7.10;1.60;;;;;;;-144.87;100.00;61487.56;4957372;28;20439;-78
2023/03/11 10:32:14;;;;;;;7.82;1.77;;;;;;;-144.87;100.00;61487.56;4991702;28;20046;-79
2023/03/11 10:34:48;;;;;;;6.28;1.30;;;;;;;-144.87;100.00;61487.56;4990157;28;20133;-76
2023/03/11 10:37:38;;;;;;;9.73;1.50;;;;;;;-144.87;100.00;61487.56;4957811;28;20170;-76
2023/03/11 10:40:17;;;;;;;6.82;1.77;;;;;;;-144.87;100.00;61487.56;4950133;28;20058;-76
2023/03/11 10:42:46;;;;;;;9.02;1.80;;;;;;;-144.87;100.00;61487.56;4954832;28;20062;-76
2023/03/11 10:45:13;;;;;;;5.93;1.77;;;;;;;-144.87;100.00;61487.56;4950895;28;20081;-76
2023/03/11 10:47:41;;;;;;;9.13;1.52;;;;;;;-144.87;100.00;61487.56;4973737;28;20104;-77
2023/03/11 10:50:20;;;;;;;12.20;2.17;;;;;;;-144.87;100.00;61487.56;4991289;28;20081;-77
2023/03/11 10:53:08;;;;;;;11.13;1.83;;;;;;;-144.87;100.00;61487.56;4970298;28;20045;-77
2023/03/11 10:55:35;;;;;;;9.55;1.77;;;;;;;-144.87;100.00;61487.56;4980525;28;20065;-77
2023/03/11 10:58:12;;;;;;;4.05;1.50;;;;;;;-144.87;100.00;61487.56;4957270;28;20060;-76
2023/03/11 11:00:38;;;;;;;9.05;1.45;;;;;;;-144.87;100.00;61487.56;4971734;28;20042;-78
2023/03/11 11:03:10;;;;;;;7.60;1.27;;;;;;;-144.87;100.00;61487.56;4973184;28;20044;-76
2023/03/11 11:05:36;;;;;;;13.13;1.40;;;;;;;-144.87;100.00;61487.56;4956864;28;20049;-76
2023/03/11 11:08:07;;;;;;;7.55;1.75;;;;;;;-144.87;100.00;61487.56;4990499;28;20132;-77
2023/03/11 11:10:34;;;;;;;13.63;1.40;;;;;;;-144.87;100.00;61487.56;4986891;28;20125;-78
2023/03/11 11:13:29;;;;;;;17.85;1.88;;;;;;;-144.87;100.00;61487.56;4971509;28;20042;-76
2023/03/11 11:15:58;;;;;;;8.57;1.70;;;;;;;-144.87;100.00;61487.56;4971135;28;20073;-78
2023/03/11 11:18:48;;;;;;;8.65;1.50;;;;;;;-144.87;100.00;61487.56;4971295;28;20034;-77